Terminal Aerodrome Forecast
Issued by NWS

Home | Current Version | Previous Version | Text Only | Print | Product List | Glossary On
Versions: 1 2 3 4 5 6 7 8 9 10 11 12 13 14 15
000
FTUS43 KJKL 310500 RRA
TAFSME
TAF
KSME 310544Z 3106/0106 VRB03KT P6SM SCT040 SCT250
     FM310700 00000KT 4SM BR SKC
     FM311100 00000KT 1/2SM FG BKN002
     FM311300 24005KT P6SM SCT040=

USA.gov is the U.S. government's official web portal to all federal, state and local government web resources and services.